createdAt,value
2022-11-04T00:00:12.676Z,7.40
2022-11-04T00:02:39.525Z,7.63
2022-11-04T00:05:06.516Z,7.63
2022-11-04T00:07:51.831Z,6.80
2022-11-04T00:10:38.490Z,6.20
2022-11-04T00:13:05.469Z,5.67
2022-11-04T00:15:55.720Z,5.50
2022-11-04T00:18:22.523Z,4.87
2022-11-04T00:21:07.627Z,5.10
2022-11-04T00:23:53.206Z,4.43
2022-11-04T00:26:38.626Z,4.83
2022-11-04T00:29:05.339Z,4.87
2022-11-04T00:31:50.623Z,4.47
2022-11-04T00:34:17.438Z,4.67
2022-11-04T00:36:44.168Z,3.13
2022-11-04T00:39:10.923Z,3.00
2022-11-04T00:41:37.598Z,3.53
2022-11-04T00:44:05.457Z,2.60
2022-11-04T00:46:33.532Z,3.40
2022-11-04T00:49:00.610Z,3.43
2022-11-04T00:51:27.761Z,3.27
2022-11-04T00:53:54.888Z,2.80
2022-11-04T00:56:21.893Z,3.33
2022-11-04T00:58:50.262Z,3.50
2022-11-04T01:01:19.094Z,3.07
2022-11-04T01:03:51.122Z,4.30
2022-11-04T01:06:19.017Z,3.33
2022-11-04T01:08:46.368Z,2.07
2022-11-04T01:11:13.674Z,2.57
2022-11-04T01:13:40.871Z,2.90
2022-11-04T01:16:09.968Z,2.47
2022-11-04T01:18:37.534Z,2.53
2022-11-04T01:21:05.959Z,2.40
2022-11-04T01:23:34.925Z,1.80
2022-11-04T01:26:01.747Z,1.90
2022-11-04T01:28:28.672Z,2.30
2022-11-04T01:30:55.361Z,1.83
2022-11-04T01:33:22.067Z,1.90
2022-11-04T01:35:48.772Z,1.70
2022-11-04T01:38:15.496Z,1.80
2022-11-04T01:40:42.251Z,2.00
2022-11-04T01:43:16.107Z,1.30
2022-11-04T01:45:48.724Z,1.20
2022-11-04T01:48:22.245Z,1.40
2022-11-04T01:50:51.757Z,1.10
2022-11-04T01:53:30.595Z,1.30
2022-11-04T01:55:59.417Z,1.40
2022-11-04T01:58:29.794Z,1.37
2022-11-04T02:00:56.546Z,1.13
2022-11-04T02:03:35.204Z,1.40
2022-11-04T02:06:03.015Z,1.40
2022-11-04T02:08:29.954Z,1.30
2022-11-04T02:10:59.789Z,1.20
2022-11-04T02:13:32.412Z,1.10
2022-11-04T02:16:21.600Z,0.90
2022-11-04T02:18:57.511Z,1.10
2022-11-04T02:21:30.006Z,1.23
2022-11-04T02:24:05.246Z,1.13
2022-11-04T02:26:38.034Z,1.10
2022-11-04T02:29:19.568Z,1.50
2022-11-04T02:32:03.398Z,1.47
2022-11-04T02:34:43.325Z,1.40
2022-11-04T02:37:15.133Z,1.47
2022-11-04T02:39:49.450Z,1.23
2022-11-04T02:42:42.166Z,1.20
2022-11-04T02:45:23.094Z,1.57
2022-11-04T02:47:56.449Z,1.40
2022-11-04T02:50:41.991Z,1.20
2022-11-04T02:53:14.609Z,1.07
2022-11-04T02:55:46.867Z,1.20
2022-11-04T02:58:21.729Z,0.80
2022-11-04T03:00:51.959Z,0.90
2022-11-04T03:03:25.880Z,0.80
2022-11-04T03:05:55.621Z,1.10
2022-11-04T03:08:33.372Z,0.67
2022-11-04T03:11:11.973Z,1.30
2022-11-04T03:13:41.519Z,1.60
2022-11-04T03:16:14.270Z,0.83
2022-11-04T03:18:55.335Z,0.60
2022-11-04T03:21:24.317Z,0.70
2022-11-04T03:23:51.132Z,0.57
2022-11-04T03:26:59.485Z,0.70
2022-11-04T03:29:42.320Z,0.80
2022-11-04T03:32:26.727Z,0.70
2022-11-04T03:34:53.675Z,0.90
2022-11-04T03:37:20.431Z,0.97
2022-11-04T03:39:47.331Z,0.70
2022-11-04T03:42:20.992Z,0.60
2022-11-04T03:44:53.606Z,0.73
2022-11-04T03:47:24.476Z,0.63
2022-11-04T03:49:56.142Z,0.40
2022-11-04T03:52:23.085Z,0.77
2022-11-04T03:54:49.932Z,0.50
2022-11-04T03:57:20.421Z,1.00
2022-11-04T03:59:56.153Z,0.70
2022-11-04T04:02:46.761Z,0.67
2022-11-04T04:05:38.188Z,0.70
2022-11-04T04:08:11.327Z,0.57
2022-11-04T04:10:41.951Z,0.90
2022-11-04T04:13:23.657Z,0.47
2022-11-04T04:16:03.031Z,0.70
2022-11-04T04:18:36.168Z,0.73
2022-11-04T04:21:06.712Z,0.73
2022-11-04T04:23:55.067Z,0.53
2022-11-04T04:26:43.108Z,0.97
2022-11-04T04:29:10.937Z,0.70
2022-11-04T04:31:52.406Z,0.90
2022-11-04T04:34:24.956Z,1.10
2022-11-04T04:37:20.297Z,0.50
2022-11-04T04:40:23.868Z,0.60
2022-11-04T04:43:11.976Z,0.90
2022-11-04T04:45:42.616Z,0.97
2022-11-04T04:48:12.330Z,0.80
2022-11-04T04:50:45.894Z,0.67
2022-11-04T04:53:12.787Z,1.20
2022-11-04T04:55:41.744Z,0.70
2022-11-04T04:58:09.168Z,0.70
2022-11-04T05:00:35.951Z,0.60
2022-11-04T05:03:02.796Z,0.60
2022-11-04T05:05:29.883Z,0.43
2022-11-04T05:08:03.503Z,0.63
2022-11-04T05:10:30.215Z,0.67
2022-11-04T05:13:15.870Z,0.57
2022-11-04T05:15:42.783Z,0.90
2022-11-04T05:18:10.004Z,1.00
2022-11-04T05:20:38.444Z,0.70
2022-11-04T05:23:05.245Z,1.00
2022-11-04T05:25:32.015Z,0.80
2022-11-04T05:28:02.392Z,0.77
2022-11-04T05:30:29.667Z,1.47
2022-11-04T05:32:59.967Z,1.50
2022-11-04T05:35:30.538Z,1.00
2022-11-04T05:37:57.377Z,1.20
2022-11-04T05:40:25.079Z,1.17
2022-11-04T05:42:51.803Z,1.07
2022-11-04T05:45:18.619Z,0.90
2022-11-04T05:47:45.341Z,1.20
2022-11-04T05:50:12.102Z,0.90
2022-11-04T05:52:38.885Z,0.80
2022-11-04T05:55:06.131Z,1.03
2022-11-04T05:57:32.897Z,3.13
2022-11-04T05:59:59.575Z,8.00
2022-11-04T06:02:26.415Z,1.20
2022-11-04T06:04:53.259Z,1.30
2022-11-04T06:07:19.972Z,1.10
2022-11-04T06:09:46.671Z,0.80
2022-11-04T06:12:15.294Z,0.90
2022-11-04T06:14:45.105Z,1.03
2022-11-04T06:17:20.721Z,0.70
2022-11-04T06:19:47.880Z,1.07
2022-11-04T06:22:17.050Z,1.37
2022-11-04T06:24:44.242Z,2.07
2022-11-04T06:27:11.609Z,4.60
2022-11-04T06:29:41.040Z,2.10
2022-11-04T06:32:09.952Z,1.50
2022-11-04T06:34:36.920Z,1.47
2022-11-04T06:37:04.802Z,0.80
2022-11-04T06:39:31.630Z,1.03
2022-11-04T06:41:59.625Z,0.90
2022-11-04T06:44:29.187Z,0.97
2022-11-04T06:46:56.007Z,0.70
2022-11-04T06:49:23.498Z,1.20
2022-11-04T06:51:50.571Z,0.93
2022-11-04T06:54:18.099Z,1.23
2022-11-04T06:56:45.717Z,1.07
2022-11-04T06:59:16.553Z,1.17
2022-11-04T07:01:43.539Z,1.43
2022-11-04T07:04:10.429Z,1.17
2022-11-04T07:06:39.741Z,1.00
2022-11-04T07:09:12.107Z,1.27
2022-11-04T07:11:39.000Z,1.77
2022-11-04T07:14:05.834Z,1.63
2022-11-04T07:16:32.524Z,1.70
2022-11-04T07:18:59.402Z,1.27
2022-11-04T07:21:26.295Z,1.10
2022-11-04T07:23:53.310Z,2.07
2022-11-04T07:26:20.119Z,1.03
2022-11-04T07:28:47.071Z,1.33
2022-11-04T07:31:15.266Z,1.13
2022-11-04T07:33:42.366Z,1.20
2022-11-04T07:36:12.885Z,1.77
2022-11-04T07:38:39.675Z,1.30
2022-11-04T07:41:06.600Z,0.87
2022-11-04T07:43:33.440Z,1.60
2022-11-04T07:46:08.505Z,1.83
2022-11-04T07:48:36.663Z,1.47
2022-11-04T07:51:04.838Z,1.70
2022-11-04T07:53:32.063Z,1.23
2022-11-04T07:55:59.071Z,1.60
2022-11-04T07:58:25.893Z,1.77
2022-11-04T08:01:02.216Z,1.33
2022-11-04T08:03:29.096Z,1.43
2022-11-04T08:06:00.887Z,1.17
2022-11-04T08:08:28.591Z,1.10
2022-11-04T08:11:17.747Z,1.10
2022-11-04T08:13:45.972Z,1.13
2022-11-04T08:16:15.467Z,0.90
2022-11-04T08:18:43.522Z,1.37
2022-11-04T08:21:11.044Z,1.47
2022-11-04T08:23:38.557Z,1.23
2022-11-04T08:26:10.535Z,1.60
2022-11-04T08:28:37.732Z,1.50
2022-11-04T08:31:07.670Z,1.00
2022-11-04T08:33:35.878Z,1.57
2022-11-04T08:36:07.450Z,1.23
2022-11-04T08:38:34.519Z,1.43
2022-11-04T08:41:03.731Z,1.23
2022-11-04T08:43:30.535Z,1.10
2022-11-04T08:45:57.317Z,1.50
2022-11-04T08:48:24.116Z,1.80
2022-11-04T08:50:53.162Z,1.20
2022-11-04T08:53:20.210Z,1.97
2022-11-04T08:55:47.463Z,1.83
2022-11-04T08:58:14.354Z,1.80
2022-11-04T09:00:41.114Z,1.70
2022-11-04T09:03:08.666Z,1.60
2022-11-04T09:05:47.482Z,1.40
2022-11-04T09:08:18.109Z,1.50
2022-11-04T09:10:46.353Z,1.23
2022-11-04T09:13:13.786Z,1.80
2022-11-04T09:15:40.618Z,1.50
2022-11-04T09:18:08.100Z,3.00
2022-11-04T09:20:38.542Z,1.90
2022-11-04T09:23:06.958Z,2.33
2022-11-04T09:25:34.739Z,2.30
2022-11-04T09:28:01.744Z,1.93
2022-11-04T09:30:28.684Z,1.93
2022-11-04T09:32:55.526Z,1.80
2022-11-04T09:35:22.730Z,1.90
2022-11-04T09:37:50.668Z,1.83
2022-11-04T09:40:19.401Z,1.37
2022-11-04T09:43:04.906Z,1.70
2022-11-04T09:45:33.354Z,1.57
2022-11-04T09:48:08.006Z,1.37
2022-11-04T09:50:46.928Z,1.57
2022-11-04T09:53:34.240Z,2.00
2022-11-04T09:56:07.191Z,1.17
2022-11-04T09:58:38.417Z,1.53
2022-11-04T10:01:30.963Z,1.47
2022-11-04T10:04:14.558Z,2.70
2022-11-04T10:07:38.122Z,2.00
2022-11-04T10:10:28.507Z,2.30
2022-11-04T10:13:10.322Z,2.20
2022-11-04T10:15:54.081Z,1.90
2022-11-04T10:18:39.520Z,1.70
2022-11-04T10:21:25.121Z,2.60
2022-11-04T10:24:16.264Z,2.00
2022-11-04T10:26:45.439Z,2.00
2022-11-04T10:29:40.997Z,1.83
2022-11-04T10:32:14.452Z,1.93
2022-11-04T10:34:55.034Z,1.70
2022-11-04T10:37:21.934Z,2.30
2022-11-04T10:39:48.824Z,2.53
2022-11-04T10:42:22.230Z,2.27
2022-11-04T10:44:51.889Z,1.70
2022-11-04T10:47:42.083Z,1.77
2022-11-04T10:50:29.428Z,2.30
2022-11-04T10:53:22.764Z,1.87
2022-11-04T10:56:09.456Z,1.60
2022-11-04T10:58:42.941Z,2.17
2022-11-04T11:01:32.688Z,1.87
2022-11-04T11:04:00.553Z,1.90
2022-11-04T11:06:34.450Z,2.50
2022-11-04T11:09:21.250Z,2.63
2022-11-04T11:11:50.501Z,2.30
2022-11-04T11:14:18.778Z,2.30
2022-11-04T11:16:45.967Z,2.10
2022-11-04T11:19:17.670Z,2.03
2022-11-04T11:21:50.143Z,2.13
2022-11-04T11:24:20.116Z,2.00
2022-11-04T11:26:50.791Z,1.90
2022-11-04T11:29:31.737Z,1.67
2022-11-04T11:32:00.869Z,2.20
2022-11-04T11:34:38.964Z,1.87
2022-11-04T11:37:24.391Z,2.80
2022-11-04T11:39:51.355Z,2.53
2022-11-04T11:42:20.475Z,2.20
2022-11-04T11:44:54.675Z,2.40
2022-11-04T11:47:25.257Z,1.97
2022-11-04T11:50:19.487Z,2.37
2022-11-04T11:52:48.010Z,1.90
2022-11-04T11:55:26.407Z,2.10
2022-11-04T12:01:02.030Z,2.20
2022-11-04T12:10:24.011Z,3.00
2022-11-04T12:13:24.476Z,1.87
2022-11-04T12:16:11.443Z,1.90
2022-11-04T12:19:05.553Z,2.13
2022-11-04T12:21:36.929Z,2.23
2022-11-04T12:24:23.670Z,1.83
2022-11-04T12:27:31.430Z,2.17
2022-11-04T12:30:35.404Z,2.17
2022-11-04T12:33:23.183Z,2.20
2022-11-04T12:36:43.725Z,2.17
2022-11-04T12:39:39.413Z,2.50
2022-11-04T12:42:29.687Z,1.70
2022-11-04T12:45:09.135Z,2.27
2022-11-04T12:47:39.594Z,2.40
2022-11-04T12:50:24.790Z,2.20
2022-11-04T12:53:28.860Z,2.20
2022-11-04T12:56:24.713Z,2.53
2022-11-04T12:59:20.735Z,3.53
2022-11-04T13:01:55.713Z,2.30
2022-11-04T13:04:29.182Z,2.60
2022-11-04T13:07:14.576Z,2.10
2022-11-04T13:09:44.765Z,2.20
2022-11-04T13:12:22.269Z,1.80
2022-11-04T13:15:04.927Z,1.73
2022-11-04T13:17:39.376Z,2.30
2022-11-04T13:20:33.065Z,2.10
2022-11-04T13:23:05.769Z,2.70
2022-11-04T13:25:41.677Z,2.50
2022-11-04T13:28:13.672Z,2.10
2022-11-04T13:31:06.649Z,2.60
2022-11-04T13:33:43.582Z,3.90
2022-11-04T13:36:30.266Z,3.13
2022-11-04T13:39:06.270Z,2.33
2022-11-04T13:41:46.653Z,2.60
2022-11-04T13:44:23.931Z,2.13
2022-11-04T13:46:54.392Z,2.20
2022-11-04T13:49:41.412Z,1.87
2022-11-04T13:52:13.640Z,1.93
2022-11-04T13:54:43.094Z,2.10
2022-11-04T13:57:17.216Z,2.07
2022-11-04T14:00:16.244Z,1.40
2022-11-04T14:02:47.515Z,1.90
2022-11-04T14:05:37.116Z,1.80
2022-11-04T14:08:03.780Z,1.90
2022-11-04T14:10:50.416Z,2.07
2022-11-04T14:13:37.516Z,2.10
2022-11-04T14:16:10.091Z,2.03
2022-11-04T14:18:41.933Z,1.73
2022-11-04T14:21:15.468Z,2.20
2022-11-04T14:23:54.889Z,2.40
2022-11-04T14:26:25.608Z,1.87
2022-11-04T14:29:22.849Z,1.87
2022-11-04T14:31:58.452Z,2.30
2022-11-04T14:34:31.883Z,2.63
2022-11-04T14:37:01.732Z,1.70
2022-11-04T14:39:34.278Z,2.20
2022-11-04T14:42:03.261Z,1.77
2022-11-04T14:44:35.580Z,1.80
2022-11-04T14:47:28.901Z,2.70
2022-11-04T14:49:58.445Z,1.80
2022-11-04T14:52:42.901Z,1.63
2022-11-04T14:55:15.923Z,2.20
2022-11-04T14:57:54.238Z,2.57
2022-11-04T15:00:52.803Z,2.50
2022-11-04T15:04:04.539Z,2.20
2022-11-04T15:06:11.298Z,2.20
2022-11-04T15:08:45.121Z,2.60
2022-11-04T15:11:17.226Z,3.80
2022-11-04T15:13:48.760Z,3.50
2022-11-04T15:16:20.285Z,4.20
2022-11-04T15:18:48.194Z,3.30
2022-11-04T15:21:15.802Z,3.00
2022-11-04T15:23:46.343Z,3.07
2022-11-04T15:26:26.519Z,2.70
2022-11-04T15:28:58.835Z,2.83
2022-11-04T15:31:28.414Z,4.07
2022-11-04T15:34:00.410Z,2.53
2022-11-04T15:36:36.728Z,3.37
2022-11-04T15:39:16.278Z,3.50
2022-11-04T15:42:03.268Z,3.47
2022-11-04T15:44:32.925Z,3.30
2022-11-04T15:47:00.582Z,2.80
2022-11-04T15:49:30.086Z,3.10
2022-11-04T15:52:05.076Z,2.80
2022-11-04T15:54:37.734Z,3.00
2022-11-04T15:57:19.262Z,2.97
2022-11-04T16:00:08.702Z,2.90
2022-11-04T16:02:44.528Z,2.70
2022-11-04T16:05:11.249Z,2.97
2022-11-04T16:07:41.712Z,3.13
2022-11-04T16:10:31.072Z,2.70
2022-11-04T16:13:02.585Z,2.57
2022-11-04T16:15:32.349Z,3.37
2022-11-04T16:17:59.402Z,2.20
2022-11-04T16:20:26.339Z,3.00
2022-11-04T16:22:59.177Z,4.13
2022-11-04T16:25:31.139Z,3.00
2022-11-04T16:27:59.563Z,2.23
2022-11-04T16:30:27.711Z,2.07
2022-11-04T16:33:07.015Z,2.60
2022-11-04T16:35:33.942Z,2.60
2022-11-04T16:38:01.344Z,2.80
2022-11-04T16:40:28.301Z,3.60
2022-11-04T16:42:55.066Z,7.17
2022-11-04T16:45:29.181Z,12.33
2022-11-04T16:47:56.967Z,2.87
2022-11-04T16:50:24.682Z,3.73
2022-11-04T16:52:51.532Z,3.30
2022-11-04T16:55:19.182Z,2.93
2022-11-04T16:57:46.868Z,3.87
2022-11-04T17:00:25.041Z,2.73
2022-11-04T17:02:52.549Z,2.60
2022-11-04T17:05:20.595Z,2.50
2022-11-04T17:07:54.258Z,2.43
2022-11-04T17:10:27.028Z,3.43
2022-11-04T17:12:53.760Z,3.60
2022-11-04T17:15:21.869Z,5.90
2022-11-04T17:17:48.753Z,5.28
2022-11-04T17:20:18.000Z,5.43
2022-11-04T17:22:46.769Z,5.50
2022-11-04T17:25:20.356Z,5.53
2022-11-04T17:27:47.556Z,2.73
2022-11-04T17:30:15.045Z,2.67
2022-11-04T17:32:42.430Z,2.90
2022-11-04T17:35:11.615Z,4.03
2022-11-04T17:37:38.370Z,4.30
2022-11-04T17:40:06.740Z,2.60
2022-11-04T17:42:52.121Z,3.10
2022-11-04T17:45:18.879Z,3.00
2022-11-04T17:47:46.399Z,4.07
2022-11-04T17:50:13.855Z,3.87
2022-11-04T17:52:42.192Z,3.80
2022-11-04T17:55:15.359Z,5.23
2022-11-04T17:57:43.634Z,4.00
2022-11-04T18:00:14.185Z,6.47
2022-11-04T18:02:41.636Z,4.60
2022-11-04T18:05:09.510Z,5.60
2022-11-04T18:07:36.389Z,4.73
2022-11-04T18:10:03.372Z,5.53
2022-11-04T18:12:41.259Z,5.80
2022-11-04T18:15:11.428Z,6.00
2022-11-04T18:17:39.350Z,5.67
2022-11-04T18:20:13.315Z,5.50
2022-11-04T18:22:41.474Z,5.50
2022-11-04T18:25:09.279Z,8.95
2022-11-04T18:27:36.864Z,8.55
2022-11-04T18:30:03.870Z,8.80
2022-11-04T18:32:30.632Z,10.67
2022-11-04T18:34:57.731Z,10.20
2022-11-04T18:37:24.553Z,10.07
2022-11-04T18:39:51.318Z,8.05
2022-11-04T18:42:18.029Z,6.25
2022-11-04T18:44:44.761Z,5.70
2022-11-04T18:47:11.498Z,5.32
2022-11-04T18:49:38.297Z,4.25
2022-11-04T18:52:05.172Z,5.20
2022-11-04T18:54:31.929Z,5.53
2022-11-04T18:56:58.658Z,6.50
2022-11-04T18:59:25.403Z,5.67
2022-11-04T19:01:53.219Z,5.30
2022-11-04T19:04:20.211Z,5.47
2022-11-04T19:06:47.160Z,6.50
2022-11-04T19:09:45.593Z,5.27
2022-11-04T19:12:21.771Z,5.27
2022-11-04T19:14:49.170Z,6.23
2022-11-04T19:17:15.943Z,5.40
2022-11-04T19:19:42.928Z,5.70
2022-11-04T19:22:10.396Z,6.10
2022-11-04T19:24:37.402Z,5.47
2022-11-04T19:27:04.507Z,5.83
2022-11-04T19:29:32.906Z,5.70
2022-11-04T19:32:00.319Z,6.70
2022-11-04T19:34:27.073Z,6.00
2022-11-04T19:36:53.788Z,6.53
2022-11-04T19:39:20.591Z,7.90
2022-11-04T19:42:06.161Z,9.50
2022-11-04T19:44:32.983Z,9.33
2022-11-04T19:46:59.747Z,30.40
2022-11-04T19:49:31.106Z,24.33
2022-11-04T19:51:59.076Z,14.53
2022-11-04T19:54:26.896Z,9.17
2022-11-04T19:56:53.646Z,7.40
2022-11-04T19:59:20.470Z,7.53
2022-11-04T20:01:47.280Z,7.27
2022-11-04T20:04:14.155Z,7.60
2022-11-04T20:06:40.947Z,6.53
2022-11-04T20:09:11.051Z,6.30
2022-11-04T20:11:59.745Z,6.87
2022-11-04T20:14:28.109Z,8.13
2022-11-04T20:16:54.940Z,7.97
2022-11-04T20:19:23.138Z,8.13
2022-11-04T20:21:50.710Z,10.40
2022-11-04T20:24:17.540Z,11.57
2022-11-04T20:26:46.581Z,11.00
2022-11-04T20:29:16.264Z,9.75
2022-11-04T20:31:44.310Z,8.95
2022-11-04T20:34:13.377Z,8.60
2022-11-04T20:36:40.460Z,8.80
2022-11-04T20:39:12.720Z,7.30
2022-11-04T20:41:39.565Z,7.33
2022-11-04T20:44:06.318Z,7.13
2022-11-04T20:46:34.721Z,8.27
2022-11-04T20:49:03.045Z,10.60
2022-11-04T20:51:32.489Z,8.50
2022-11-04T20:54:02.106Z,9.70
2022-11-04T20:56:32.080Z,9.43
2022-11-04T20:59:00.086Z,9.02
2022-11-04T21:01:35.572Z,9.15
2022-11-04T21:04:08.342Z,8.98
2022-11-04T21:06:37.747Z,10.68
2022-11-04T21:09:06.015Z,8.90
2022-11-04T21:11:34.466Z,10.30
2022-11-04T21:14:02.342Z,14.90
2022-11-04T21:16:30.418Z,14.70
2022-11-04T21:18:57.880Z,13.82
2022-11-04T21:21:27.891Z,14.68
2022-11-04T21:23:59.056Z,16.33
2022-11-04T21:26:28.385Z,13.30
2022-11-04T21:28:56.376Z,11.82
2022-11-04T21:31:24.337Z,11.80
2022-11-04T21:33:52.413Z,10.73
2022-11-04T21:36:19.722Z,11.70
2022-11-04T21:38:46.810Z,13.95
2022-11-04T21:41:21.165Z,15.25
2022-11-04T21:43:47.841Z,12.10
2022-11-04T21:46:16.153Z,12.82
2022-11-04T21:48:43.252Z,12.35
2022-11-04T21:51:13.438Z,11.75
2022-11-04T21:53:40.523Z,11.52
2022-11-04T21:56:13.399Z,12.73
2022-11-04T21:58:40.611Z,11.00
2022-11-04T22:01:09.052Z,13.05
2022-11-04T22:03:35.829Z,11.82
2022-11-04T22:06:11.280Z,10.35
2022-11-04T22:08:39.329Z,9.93
2022-11-04T22:11:07.246Z,10.85
2022-11-04T22:13:34.219Z,12.50
2022-11-04T22:16:01.562Z,13.32
2022-11-04T22:18:30.770Z,12.52
2022-11-04T22:21:02.122Z,15.65
2022-11-04T22:23:28.970Z,16.13
2022-11-04T22:26:07.841Z,18.98
2022-11-04T22:28:34.721Z,13.95
2022-11-04T22:31:17.112Z,11.88
2022-11-04T22:33:44.132Z,9.57
2022-11-04T22:36:12.628Z,9.25
2022-11-04T22:38:40.630Z,9.95
2022-11-04T22:41:09.250Z,8.75
2022-11-04T22:43:36.022Z,8.65
2022-11-04T22:46:16.117Z,9.90
2022-11-04T22:48:43.089Z,10.35
2022-11-04T22:51:10.218Z,10.73
2022-11-04T22:53:37.247Z,9.75
2022-11-04T22:56:06.498Z,10.15
2022-11-04T22:58:33.368Z,13.05
2022-11-04T23:01:07.430Z,10.90
2022-11-04T23:03:34.615Z,13.98
2022-11-04T23:06:04.135Z,11.13
2022-11-04T23:08:33.122Z,12.40
2022-11-04T23:11:39.393Z,12.30
2022-11-04T23:14:24.899Z,11.63
2022-11-04T23:17:11.057Z,11.25
2022-11-04T23:19:38.713Z,10.52
2022-11-04T23:22:24.951Z,9.55
2022-11-04T23:25:07.141Z,8.40
2022-11-04T23:28:03.164Z,8.25
2022-11-04T23:30:36.669Z,13.80
2022-11-04T23:33:09.396Z,9.93
2022-11-04T23:36:02.286Z,10.05
2022-11-04T23:38:29.622Z,9.82
2022-11-04T23:41:20.439Z,8.77
2022-11-04T23:43:47.595Z,7.57
2022-11-04T23:46:36.582Z,7.80
2022-11-04T23:49:24.975Z,7.93
2022-11-04T23:52:10.254Z,8.10
2022-11-04T23:54:55.814Z,8.48
2022-11-04T23:57:41.183Z,7.83
